createdAt,value
2023-05-02T00:00:39.895Z,86.28
2023-05-02T00:01:42.129Z,86.34
2023-05-02T00:02:39.126Z,86.41
2023-05-02T00:03:38.825Z,86.41
2023-05-02T00:04:39.533Z,86.35
2023-05-02T00:05:39.568Z,86.34
2023-05-02T00:06:39.563Z,86.33
2023-05-02T00:07:38.942Z,86.26
2023-05-02T00:08:39.284Z,86.24
2023-05-02T00:09:38.551Z,86.23
2023-05-02T00:10:38.949Z,86.31
2023-05-02T00:11:39.334Z,86.45
2023-05-02T00:12:38.827Z,86.50
2023-05-02T00:13:39.284Z,86.58
2023-05-02T00:14:38.919Z,86.59
2023-05-02T00:15:39.526Z,86.45
2023-05-02T00:16:39.120Z,86.27
2023-05-02T00:17:38.538Z,86.27
2023-05-02T00:18:38.768Z,86.29
2023-05-02T00:19:38.965Z,86.31
2023-05-02T00:20:39.313Z,86.34
2023-05-02T00:21:38.790Z,86.41
2023-05-02T00:22:38.562Z,86.45
2023-05-02T00:23:38.696Z,86.42
2023-05-02T00:24:38.739Z,86.47
2023-05-02T00:25:39.494Z,86.57
2023-05-02T00:26:38.756Z,86.65
2023-05-02T00:27:38.364Z,86.66
2023-05-02T00:28:38.677Z,86.76
2023-05-02T00:29:38.861Z,86.78
2023-05-02T00:30:39.695Z,86.72
2023-05-02T00:31:39.230Z,86.69
2023-05-02T00:32:38.685Z,86.66
2023-05-02T00:33:38.963Z,86.68
2023-05-02T00:34:39.351Z,86.67
2023-05-02T00:35:38.680Z,86.69
2023-05-02T00:36:38.568Z,86.71
2023-05-02T00:37:38.693Z,86.80
2023-05-02T00:38:38.920Z,86.88
2023-05-02T00:39:38.742Z,86.80
2023-05-02T00:40:39.226Z,86.69
2023-05-02T00:41:38.461Z,86.56
2023-05-02T00:42:38.510Z,86.49
2023-05-02T00:43:38.517Z,86.44
2023-05-02T00:44:38.559Z,86.35
2023-05-02T00:45:39.181Z,86.30
2023-05-02T00:46:38.727Z,86.30
2023-05-02T00:47:38.962Z,86.26
2023-05-02T00:48:38.994Z,86.29
2023-05-02T00:49:38.259Z,86.26
2023-05-02T00:50:38.781Z,86.23
2023-05-02T00:51:38.867Z,86.23
2023-05-02T00:52:39.119Z,86.18
2023-05-02T00:53:38.564Z,86.13
2023-05-02T00:54:39.111Z,86.13
2023-05-02T00:55:38.653Z,86.18
2023-05-02T00:56:38.930Z,86.22
2023-05-02T00:57:39.065Z,86.20
2023-05-02T00:58:38.399Z,86.14
2023-05-02T00:59:38.939Z,86.16
2023-05-02T01:00:43.620Z,86.21
2023-05-02T01:01:39.125Z,86.20
2023-05-02T01:02:39.090Z,86.22
2023-05-02T01:03:39.141Z,86.32
2023-05-02T01:04:38.831Z,86.41
2023-05-02T01:05:39.075Z,86.46
2023-05-02T01:06:38.341Z,86.41
2023-05-02T01:07:38.701Z,86.33
2023-05-02T01:08:38.803Z,86.38
2023-05-02T01:09:38.728Z,86.48
2023-05-02T01:10:39.077Z,86.39
2023-05-02T01:11:38.422Z,86.46
2023-05-02T01:12:39.466Z,86.44
2023-05-02T01:13:38.554Z,86.48
2023-05-02T01:14:38.553Z,86.55
2023-05-02T01:15:38.862Z,86.48
2023-05-02T01:16:39.343Z,86.44
2023-05-02T01:17:38.890Z,86.45
2023-05-02T01:18:38.889Z,86.43
2023-05-02T01:19:39.042Z,86.27
2023-05-02T01:20:38.473Z,86.27
2023-05-02T01:21:38.305Z,86.34
2023-05-02T01:22:38.500Z,86.29
2023-05-02T01:23:38.662Z,86.33
2023-05-02T01:24:38.594Z,86.29
2023-05-02T01:25:38.810Z,86.29
2023-05-02T01:26:38.811Z,86.19
2023-05-02T01:27:38.771Z,86.18
2023-05-02T01:28:38.940Z,86.16
2023-05-02T01:29:39.034Z,86.18
2023-05-02T01:30:52.898Z,86.17
2023-05-02T01:31:39.388Z,86.27
2023-05-02T01:32:38.928Z,86.28
2023-05-02T01:33:39.068Z,86.22
2023-05-02T01:34:38.283Z,86.19
2023-05-02T01:35:38.603Z,86.26
2023-05-02T01:36:38.951Z,86.23
2023-05-02T01:37:39.031Z,86.23
2023-05-02T01:38:38.339Z,86.23
2023-05-02T01:39:38.838Z,86.12
2023-05-02T01:40:39.159Z,86.22
2023-05-02T01:41:38.506Z,86.21
2023-05-02T01:42:38.423Z,86.13
2023-05-02T01:43:38.839Z,86.13
2023-05-02T01:44:38.867Z,86.16
2023-05-02T01:45:39.131Z,86.16
2023-05-02T01:46:38.602Z,86.20
2023-05-02T01:47:38.994Z,86.19
2023-05-02T01:48:38.809Z,86.17
2023-05-02T01:49:39.072Z,86.25
2023-05-02T01:50:38.729Z,86.23
2023-05-02T01:51:39.096Z,86.15
2023-05-02T01:52:38.625Z,86.20
2023-05-02T01:53:39.060Z,86.29
2023-05-02T01:54:38.405Z,86.33
2023-05-02T01:55:38.903Z,86.37
2023-05-02T01:56:39.073Z,86.38
2023-05-02T01:57:38.492Z,86.38
2023-05-02T01:58:38.884Z,86.43
2023-05-02T01:59:40.113Z,86.51
2023-05-02T02:00:39.378Z,86.43
2023-05-02T02:01:39.041Z,86.44
2023-05-02T02:02:38.933Z,86.50
2023-05-02T02:03:39.363Z,86.45
2023-05-02T02:04:39.103Z,86.46
2023-05-02T02:05:38.904Z,86.45
2023-05-02T02:06:39.117Z,86.45
2023-05-02T02:07:38.436Z,86.51
2023-05-02T02:08:38.906Z,86.57
2023-05-02T02:09:39.143Z,86.64
2023-05-02T02:10:38.834Z,86.69
2023-05-02T02:11:39.080Z,86.71
2023-05-02T02:12:38.719Z,86.70
2023-05-02T02:13:38.855Z,86.77
2023-05-02T02:14:39.126Z,86.83
2023-05-02T02:15:38.781Z,86.78
2023-05-02T02:16:39.029Z,86.78
2023-05-02T02:17:38.727Z,86.86
2023-05-02T02:18:38.674Z,86.77
2023-05-02T02:19:38.672Z,86.77
2023-05-02T02:20:39.204Z,86.87
2023-05-02T02:21:38.827Z,86.90
2023-05-02T02:22:38.915Z,86.87
2023-05-02T02:23:39.110Z,87.00
2023-05-02T02:24:38.567Z,87.00
2023-05-02T02:25:39.219Z,87.03
2023-05-02T02:26:38.958Z,87.15
2023-05-02T02:27:39.635Z,87.17
2023-05-02T02:28:39.224Z,87.18
2023-05-02T02:29:39.248Z,87.21
2023-05-02T02:30:39.410Z,87.18
2023-05-02T02:31:39.372Z,87.18
2023-05-02T02:32:39.014Z,87.30
2023-05-02T02:33:38.943Z,87.37
2023-05-02T02:34:39.571Z,87.26
2023-05-02T02:35:39.100Z,87.22
2023-05-02T02:36:38.942Z,87.18
2023-05-02T02:37:39.583Z,87.28
2023-05-02T02:38:39.353Z,87.27
2023-05-02T02:39:39.105Z,87.29
2023-05-02T02:40:39.113Z,87.27
2023-05-02T02:41:39.108Z,87.29
2023-05-02T02:42:39.005Z,87.34
2023-05-02T02:43:38.992Z,87.41
2023-05-02T02:44:38.765Z,87.39
2023-05-02T02:45:39.450Z,87.38
2023-05-02T02:46:39.208Z,87.36
2023-05-02T02:47:39.120Z,87.29
2023-05-02T02:48:38.651Z,87.31
2023-05-02T02:49:39.132Z,87.38
2023-05-02T02:50:39.201Z,87.43
2023-05-02T02:51:38.678Z,87.45
2023-05-02T02:52:39.241Z,87.49
2023-05-02T02:53:38.804Z,87.50
2023-05-02T02:54:42.620Z,87.52
2023-05-02T02:55:39.437Z,87.48
2023-05-02T02:56:38.988Z,87.43
2023-05-02T02:57:38.793Z,87.34
2023-05-02T02:58:39.330Z,87.32
2023-05-02T02:59:38.801Z,87.32
2023-05-02T03:00:40.994Z,87.30
2023-05-02T03:01:38.967Z,87.27
2023-05-02T03:02:38.845Z,87.22
2023-05-02T03:03:40.088Z,87.24
2023-05-02T03:04:38.645Z,87.18
2023-05-02T03:05:39.246Z,87.08
2023-05-02T03:06:39.141Z,87.05
2023-05-02T03:07:38.855Z,87.02
2023-05-02T03:08:39.358Z,87.03
2023-05-02T03:09:39.138Z,87.04
2023-05-02T03:10:39.165Z,86.90
2023-05-02T03:11:39.065Z,86.86
2023-05-02T03:12:38.745Z,86.85
2023-05-02T03:13:39.516Z,86.84
2023-05-02T03:14:39.468Z,86.87
2023-05-02T03:15:39.683Z,86.87
2023-05-02T03:16:39.548Z,86.85
2023-05-02T03:17:41.631Z,86.83
2023-05-02T03:18:39.628Z,86.86
2023-05-02T03:19:39.521Z,86.80
2023-05-02T03:20:39.676Z,86.76
2023-05-02T03:21:39.448Z,86.76
2023-05-02T03:22:39.252Z,86.81
2023-05-02T03:23:39.080Z,86.88
2023-05-02T03:24:39.147Z,86.91
2023-05-02T03:25:39.038Z,86.83
2023-05-02T03:26:39.025Z,86.82
2023-05-02T03:27:38.708Z,86.83
2023-05-02T03:28:40.034Z,86.95
2023-05-02T03:29:38.604Z,86.95
2023-05-02T03:30:39.779Z,86.98
2023-05-02T03:31:42.106Z,87.00
2023-05-02T03:32:39.258Z,86.99
2023-05-02T03:33:39.057Z,86.96
2023-05-02T03:34:39.411Z,86.99
2023-05-02T03:35:39.232Z,87.01
2023-05-02T03:36:38.870Z,87.02
2023-05-02T03:37:39.486Z,87.11
2023-05-02T03:38:38.927Z,87.15
2023-05-02T03:39:39.573Z,87.12
2023-05-02T03:40:39.635Z,87.12
2023-05-02T03:41:47.578Z,87.13
2023-05-02T03:42:39.238Z,87.11
2023-05-02T03:43:39.045Z,87.22
2023-05-02T03:44:38.833Z,87.22
2023-05-02T03:45:39.631Z,87.26
2023-05-02T03:46:39.424Z,87.19
2023-05-02T03:47:39.143Z,87.24
2023-05-02T03:48:39.218Z,87.25
2023-05-02T03:49:39.191Z,87.29
2023-05-02T03:50:39.735Z,87.36
2023-05-02T03:51:39.489Z,87.36
2023-05-02T03:52:39.560Z,87.44
2023-05-02T03:53:39.813Z,87.55
2023-05-02T03:54:39.906Z,87.57
2023-05-02T03:55:40.094Z,87.59
2023-05-02T03:56:41.275Z,87.60
2023-05-02T03:57:39.677Z,87.60
2023-05-02T03:58:39.739Z,87.53
2023-05-02T03:59:39.554Z,87.62
2023-05-02T04:00:40.408Z,87.64
2023-05-02T04:01:39.499Z,87.77
2023-05-02T04:02:39.761Z,87.76
2023-05-02T04:03:40.917Z,87.88
2023-05-02T04:04:40.501Z,87.91
2023-05-02T04:05:45.111Z,87.99
2023-05-02T04:06:39.058Z,88.04
2023-05-02T04:07:58.134Z,88.07
2023-05-02T04:08:38.547Z,88.12
2023-05-02T04:09:39.640Z,88.18
2023-05-02T04:10:39.687Z,88.25
2023-05-02T04:11:44.805Z,88.24
2023-05-02T04:12:39.765Z,88.27
2023-05-02T04:13:39.713Z,88.26
2023-05-02T04:14:40.064Z,88.34
2023-05-02T04:15:39.427Z,88.44
2023-05-02T04:16:40.020Z,88.40
2023-05-02T04:17:39.602Z,88.45
2023-05-02T04:18:39.653Z,88.50
2023-05-02T04:19:39.641Z,88.57
2023-05-02T04:20:39.639Z,88.59
2023-05-02T04:21:39.685Z,88.66
2023-05-02T04:22:39.695Z,88.69
2023-05-02T04:23:39.257Z,88.72
2023-05-02T04:24:39.681Z,88.69
2023-05-02T04:25:39.659Z,88.80
2023-05-02T04:26:39.354Z,88.91
2023-05-02T04:27:39.164Z,88.94
2023-05-02T04:28:39.027Z,88.99
2023-05-02T04:29:39.173Z,89.07
2023-05-02T04:30:39.924Z,89.17
2023-05-02T04:31:40.312Z,89.15
2023-05-02T04:32:39.401Z,89.16
2023-05-02T04:33:39.192Z,89.14
2023-05-02T04:34:39.079Z,89.11
2023-05-02T04:35:39.286Z,89.18
2023-05-02T04:36:39.150Z,89.16
2023-05-02T04:37:39.552Z,89.21
2023-05-02T04:38:39.544Z,89.20
2023-05-02T04:39:39.402Z,89.21
2023-05-02T04:40:39.386Z,89.24
2023-05-02T04:41:39.351Z,89.22
2023-05-02T04:42:39.070Z,89.11
2023-05-02T04:43:40.079Z,89.10
2023-05-02T04:44:39.231Z,89.06
2023-05-02T04:45:58.704Z,89.09
2023-05-02T04:46:39.845Z,89.08
2023-05-02T04:47:40.148Z,89.06
2023-05-02T04:48:39.110Z,89.07
2023-05-02T04:49:39.450Z,89.15
2023-05-02T04:50:39.826Z,89.11
2023-05-02T04:51:39.812Z,89.06
2023-05-02T04:52:39.617Z,89.01
2023-05-02T04:53:39.774Z,89.03
2023-05-02T04:54:39.730Z,89.11
2023-05-02T04:55:40.075Z,89.10
2023-05-02T04:56:39.343Z,89.10
2023-05-02T04:57:39.161Z,89.08
2023-05-02T04:58:39.198Z,89.02
2023-05-02T04:59:39.519Z,88.96
2023-05-02T05:00:40.612Z,89.04
2023-05-02T05:01:39.749Z,89.02
2023-05-02T05:02:40.024Z,89.05
2023-05-02T05:03:39.400Z,88.99
2023-05-02T05:04:39.708Z,88.97
2023-05-02T05:05:40.639Z,89.06
2023-05-02T05:06:40.331Z,89.03
2023-05-02T05:07:39.387Z,89.00
2023-05-02T05:08:39.380Z,88.94
2023-05-02T05:09:39.331Z,88.97
2023-05-02T05:10:39.521Z,88.83
2023-05-02T05:11:39.312Z,88.72
2023-05-02T05:12:39.237Z,88.66
2023-05-02T05:13:39.585Z,88.56
2023-05-02T05:14:39.606Z,88.43
2023-05-02T05:15:40.440Z,88.38
2023-05-02T05:16:39.822Z,88.41
2023-05-02T05:17:40.397Z,88.38
2023-05-02T05:18:39.857Z,88.36
2023-05-02T05:19:39.938Z,88.32
2023-05-02T05:20:40.023Z,88.29
2023-05-02T05:21:39.127Z,88.29
2023-05-02T05:22:39.225Z,88.20
2023-05-02T05:23:39.264Z,88.27
2023-05-02T05:24:39.307Z,88.30
2023-05-02T05:25:39.607Z,88.47
2023-05-02T05:26:39.955Z,88.54
2023-05-02T05:27:40.530Z,88.53
2023-05-02T05:28:39.999Z,88.47
2023-05-02T05:29:39.293Z,88.41
2023-05-02T05:30:39.410Z,88.36
2023-05-02T05:31:39.521Z,88.43
2023-05-02T05:32:39.819Z,88.44
2023-05-02T05:33:40.530Z,88.37
2023-05-02T05:34:39.902Z,88.35
2023-05-02T05:35:40.640Z,88.30
2023-05-02T05:36:40.006Z,88.28
2023-05-02T05:37:39.069Z,88.27
2023-05-02T05:38:39.469Z,88.21
2023-05-02T05:39:39.600Z,88.26
2023-05-02T05:40:39.665Z,88.30
2023-05-02T05:41:39.925Z,88.27
2023-05-02T05:42:39.748Z,88.25
2023-05-02T05:43:39.881Z,88.27
2023-05-02T05:44:40.205Z,88.35
2023-05-02T05:45:39.453Z,88.48
2023-05-02T05:46:41.937Z,88.41
2023-05-02T05:47:40.248Z,88.30
2023-05-02T05:48:39.820Z,88.24
2023-05-02T05:49:40.360Z,88.29
2023-05-02T05:50:44.719Z,88.27
2023-05-02T05:51:40.113Z,88.25
2023-05-02T05:52:39.392Z,88.14
2023-05-02T05:53:39.610Z,88.13
2023-05-02T05:54:39.846Z,88.14
2023-05-02T05:55:42.151Z,88.25
2023-05-02T05:56:40.017Z,88.38
2023-05-02T05:57:39.406Z,88.46
2023-05-02T05:58:39.723Z,88.41
2023-05-02T05:59:40.364Z,88.29
2023-05-02T06:00:40.797Z,88.22
2023-05-02T06:01:39.982Z,88.12
2023-05-02T06:02:40.277Z,87.98
2023-05-02T06:03:40.614Z,87.93
2023-05-02T06:04:40.698Z,87.77
2023-05-02T06:05:40.485Z,87.83
2023-05-02T06:06:40.709Z,87.78
2023-05-02T06:07:40.582Z,87.68
2023-05-02T06:08:40.830Z,87.70
2023-05-02T06:09:40.706Z,87.72
2023-05-02T06:10:40.619Z,87.73
2023-05-02T06:11:40.063Z,87.72
2023-05-02T06:12:39.825Z,87.69
2023-05-02T06:13:40.622Z,87.68
2023-05-02T06:14:40.396Z,87.67
2023-05-02T06:15:40.319Z,87.69
2023-05-02T06:16:40.592Z,87.71
2023-05-02T06:17:40.515Z,87.75
2023-05-02T06:18:40.217Z,87.69
2023-05-02T06:19:40.405Z,87.68
2023-05-02T06:20:39.838Z,87.87
2023-05-02T06:21:40.211Z,88.03
2023-05-02T06:22:39.614Z,87.92
2023-05-02T06:23:39.873Z,87.92
2023-05-02T06:24:54.331Z,87.98
2023-05-02T06:25:39.805Z,87.92
2023-05-02T06:26:59.293Z,87.84
2023-05-02T06:27:39.685Z,87.88
2023-05-02T06:28:40.253Z,87.72
2023-05-02T06:29:39.857Z,87.48
2023-05-02T06:30:45.524Z,87.42
2023-05-02T06:31:40.224Z,87.18
2023-05-02T06:32:44.912Z,87.19
2023-05-02T06:33:40.734Z,87.17
2023-05-02T06:34:45.396Z,87.20
2023-05-02T06:35:39.840Z,87.09
2023-05-02T06:36:40.061Z,86.98
2023-05-02T06:37:39.621Z,86.83
2023-05-02T06:38:40.164Z,86.76
2023-05-02T06:39:39.933Z,86.88
2023-05-02T06:40:46.214Z,86.97
2023-05-02T06:41:39.417Z,86.96
2023-05-02T06:42:39.818Z,86.89
2023-05-02T06:43:40.234Z,86.91
2023-05-02T06:44:47.746Z,86.99
2023-05-02T06:45:42.529Z,87.00
2023-05-02T06:46:40.209Z,86.93
2023-05-02T06:47:40.251Z,87.01
2023-05-02T06:48:40.016Z,87.16
2023-05-02T06:49:39.919Z,87.23
2023-05-02T06:50:55.230Z,87.33
2023-05-02T06:51:40.494Z,87.29
2023-05-02T06:52:39.923Z,87.30
2023-05-02T06:53:40.913Z,87.28
2023-05-02T06:54:40.643Z,87.36
2023-05-02T06:55:40.612Z,87.39
2023-05-02T06:56:40.360Z,87.51
2023-05-02T06:57:40.041Z,87.66
2023-05-02T06:58:40.161Z,87.76
2023-05-02T06:59:40.356Z,87.87
2023-05-02T07:00:41.391Z,87.87
2023-05-02T07:01:40.079Z,87.92
2023-05-02T07:02:40.464Z,87.80
2023-05-02T07:03:43.465Z,87.70
2023-05-02T07:04:41.837Z,87.62
2023-05-02T07:05:41.692Z,87.77
2023-05-02T07:06:41.135Z,87.87
2023-05-02T07:07:40.111Z,88.04
2023-05-02T07:08:40.539Z,88.19
2023-05-02T07:09:40.827Z,88.26
2023-05-02T07:10:41.005Z,88.29
2023-05-02T07:11:40.168Z,88.27
2023-05-02T07:12:40.438Z,88.28
2023-05-02T07:13:39.713Z,88.28
2023-05-02T07:14:40.163Z,88.21
2023-05-02T07:15:39.642Z,88.23
2023-05-02T07:16:41.614Z,88.26
2023-05-02T07:17:40.174Z,88.24
2023-05-02T07:18:41.122Z,88.28
2023-05-02T07:19:39.361Z,88.31
2023-05-02T07:20:40.064Z,88.36
2023-05-02T07:21:39.236Z,88.42
2023-05-02T07:22:39.726Z,88.45
2023-05-02T07:23:39.988Z,88.55
2023-05-02T07:24:39.573Z,88.59
2023-05-02T07:25:40.603Z,88.59
2023-05-02T07:26:39.867Z,88.66
2023-05-02T07:27:40.755Z,88.73
2023-05-02T07:28:40.178Z,88.90
2023-05-02T07:29:39.472Z,88.94
2023-05-02T07:30:40.486Z,88.93
2023-05-02T07:31:40.398Z,88.94
2023-05-02T07:32:40.122Z,88.93
2023-05-02T07:33:39.880Z,88.92
2023-05-02T07:34:40.867Z,89.09
2023-05-02T07:35:40.703Z,89.09
2023-05-02T07:36:39.853Z,89.07
2023-05-02T07:37:39.951Z,89.07
2023-05-02T07:38:40.830Z,89.16
2023-05-02T07:39:41.105Z,89.11
2023-05-02T07:40:40.372Z,88.81
2023-05-02T07:41:39.893Z,88.72
2023-05-02T07:42:40.814Z,88.75
2023-05-02T07:43:40.207Z,88.67
2023-05-02T07:44:39.655Z,88.70
2023-05-02T07:45:40.613Z,88.64
2023-05-02T07:46:41.166Z,88.69
2023-05-02T07:47:40.330Z,88.86
2023-05-02T07:48:43.590Z,88.75
2023-05-02T07:49:40.465Z,88.58
2023-05-02T07:50:40.241Z,88.54
2023-05-02T07:51:40.585Z,88.49
2023-05-02T07:52:40.420Z,88.24
2023-05-02T07:53:40.526Z,88.27
2023-05-02T07:54:40.483Z,88.20
2023-05-02T07:55:40.256Z,87.94
2023-05-02T07:56:39.996Z,87.77
2023-05-02T07:57:40.082Z,87.82
2023-05-02T07:58:39.959Z,87.90
2023-05-02T07:59:40.890Z,88.02
2023-05-02T08:00:41.520Z,88.16
2023-05-02T08:01:39.976Z,88.09
2023-05-02T08:02:40.375Z,88.08
2023-05-02T08:03:40.378Z,88.18
2023-05-02T08:04:40.942Z,87.98
2023-05-02T08:05:40.206Z,87.77
2023-05-02T08:06:39.996Z,87.85
2023-05-02T08:07:40.083Z,87.82
2023-05-02T08:08:40.315Z,87.80
2023-05-02T08:09:40.159Z,87.77
2023-05-02T08:10:40.577Z,87.55
2023-05-02T08:11:40.505Z,87.43
2023-05-02T08:12:40.239Z,87.37
2023-05-02T08:13:39.871Z,87.47
2023-05-02T08:14:40.623Z,87.51
2023-05-02T08:15:40.384Z,87.55
2023-05-02T08:16:40.107Z,87.47
2023-05-02T08:17:44.991Z,87.38
2023-05-02T08:18:39.848Z,87.36
2023-05-02T08:19:45.552Z,87.43
2023-05-02T08:20:40.429Z,87.45
2023-05-02T08:21:45.221Z,87.5
2023-05-02T08:22:40.483Z,87.38
2023-05-02T08:23:39.985Z,87.20
2023-05-02T08:24:39.846Z,87.11
2023-05-02T08:25:45.724Z,87.04
2023-05-02T08:26:40.618Z,87.06
2023-05-02T08:27:40.332Z,86.97
2023-05-02T08:28:40.137Z,86.69
2023-05-02T08:29:39.979Z,86.56
2023-05-02T08:30:40.132Z,86.44
2023-05-02T08:31:47.881Z,86.45
2023-05-02T08:32:40.494Z,86.55
2023-05-02T08:33:40.135Z,86.47
2023-05-02T08:34:40.096Z,86.47
2023-05-02T08:35:40.459Z,86.39
2023-05-02T08:36:40.118Z,86.33
2023-05-02T08:37:39.874Z,86.34
2023-05-02T08:38:40.102Z,86.28
2023-05-02T08:39:39.776Z,86.37
2023-05-02T08:40:56.815Z,86.5
2023-05-02T08:41:40.440Z,86.63
2023-05-02T08:42:40.156Z,86.72
2023-05-02T08:43:55.097Z,86.64
2023-05-02T08:44:40.199Z,86.70
2023-05-02T08:45:40.963Z,86.67
2023-05-02T08:46:41.088Z,86.76
2023-05-02T08:47:40.367Z,86.80
2023-05-02T08:48:40.067Z,86.75
2023-05-02T08:49:40.360Z,86.91
2023-05-02T08:50:40.947Z,87.00
2023-05-02T08:51:42.419Z,86.94
2023-05-02T08:52:40.073Z,86.92
2023-05-02T08:53:59.120Z,86.80
2023-05-02T08:54:40.123Z,86.86
2023-05-02T08:55:40.371Z,86.68
2023-05-02T08:56:39.980Z,86.65
2023-05-02T08:57:40.659Z,86.70
2023-05-02T08:58:40.688Z,86.49
2023-05-02T08:59:40.590Z,86.35
2023-05-02T09:00:41.454Z,86.36
2023-05-02T09:01:45.476Z,86.12
2023-05-02T09:02:41.145Z,85.96
2023-05-02T09:03:40.113Z,85.65
2023-05-02T09:04:39.814Z,85.56
2023-05-02T09:05:40.840Z,85.55
2023-05-02T09:06:40.693Z,85.52
2023-05-02T09:07:40.426Z,85.38
2023-05-02T09:08:40.125Z,85.34
2023-05-02T09:09:39.729Z,85.27
2023-05-02T09:10:40.803Z,85.28
2023-05-02T09:11:40.139Z,85.31
2023-05-02T09:12:39.635Z,85.22
2023-05-02T09:13:39.838Z,85.06
2023-05-02T09:14:40.106Z,84.65
2023-05-02T09:15:40.441Z,84.22
2023-05-02T09:16:40.618Z,84.04
2023-05-02T09:17:40.828Z,83.52
2023-05-02T09:18:40.231Z,83.26
2023-05-02T09:19:40.060Z,83.06
2023-05-02T09:20:39.793Z,82.90
2023-05-02T09:21:54.795Z,82.62
2023-05-02T09:22:40.603Z,82.5
2023-05-02T09:23:40.292Z,81.99
2023-05-02T09:24:39.981Z,81.94
2023-05-02T09:25:40.213Z,81.97
2023-05-02T09:26:40.247Z,82.09
2023-05-02T09:27:39.899Z,82.27
2023-05-02T09:28:40.366Z,82.01
2023-05-02T09:29:40.371Z,81.74
2023-05-02T09:30:40.363Z,81.92
2023-05-02T09:32:09.990Z,82.00
2023-05-02T09:32:44.673Z,82.27
2023-05-02T09:33:40.429Z,82.29
2023-05-02T09:34:39.869Z,81.90
2023-05-02T09:36:12.954Z,81.67
2023-05-02T09:36:45.528Z,81.58
2023-05-02T09:37:40.076Z,81.62
2023-05-02T09:38:40.101Z,81.72
2023-05-02T09:39:41.483Z,81.73
2023-05-02T09:40:40.276Z,81.92
2023-05-02T09:41:39.814Z,81.49
2023-05-02T09:42:40.366Z,81.19
2023-05-02T09:43:40.340Z,80.97
2023-05-02T09:44:40.017Z,81.13
2023-05-02T09:45:39.789Z,80.92
2023-05-02T09:46:40.693Z,80.87
2023-05-02T09:47:40.769Z,80.56
2023-05-02T09:48:40.307Z,80.51
2023-05-02T09:49:40.045Z,80.47
2023-05-02T09:50:40.149Z,80.70
2023-05-02T09:51:40.472Z,80.76
2023-05-02T09:52:40.764Z,80.61
2023-05-02T09:53:41.198Z,80.29
2023-05-02T09:54:40.080Z,80.14
2023-05-02T09:55:40.306Z,80.27
2023-05-02T09:56:41.826Z,80.01
2023-05-02T09:57:40.743Z,79.64
2023-05-02T09:58:40.312Z,79.58
2023-05-02T09:59:40.381Z,79.73
2023-05-02T10:00:40.786Z,79.74
2023-05-02T10:01:40.730Z,79.89
2023-05-02T10:02:41.103Z,79.60
2023-05-02T10:03:39.886Z,79.38
2023-05-02T10:04:40.882Z,79.23
2023-05-02T10:05:39.970Z,79.25
2023-05-02T10:06:40.951Z,79.03
2023-05-02T10:07:39.754Z,78.70
2023-05-02T10:08:40.588Z,78.79
2023-05-02T10:09:40.601Z,78.40
2023-05-02T10:10:40.691Z,78.52
2023-05-02T10:11:40.521Z,78.57
2023-05-02T10:12:40.419Z,78.56
2023-05-02T10:13:41.000Z,78.43
2023-05-02T10:14:42.848Z,77.54
2023-05-02T10:15:41.204Z,77.41
2023-05-02T10:16:40.558Z,77.5
2023-05-02T10:17:40.853Z,77.88
2023-05-02T10:18:41.015Z,77.65
2023-05-02T10:19:40.326Z,76.41
2023-05-02T10:20:42.708Z,76.06
2023-05-02T10:21:40.828Z,75.37
2023-05-02T10:22:41.388Z,76.05
2023-05-02T10:23:41.465Z,75.91
2023-05-02T10:24:40.409Z,75.73
2023-05-02T10:25:40.218Z,75.94
2023-05-02T10:26:40.359Z,76.14
2023-05-02T10:27:40.266Z,76.31
2023-05-02T10:28:40.062Z,76.30
2023-05-02T10:29:40.442Z,75.95
2023-05-02T10:30:40.608Z,75.59
2023-05-02T10:31:41.084Z,75.92
2023-05-02T10:32:40.179Z,75.89
2023-05-02T10:33:40.140Z,76.05
2023-05-02T10:34:39.976Z,76.51
2023-05-02T10:35:41.021Z,76.41
2023-05-02T10:36:39.982Z,76.65
2023-05-02T10:37:40.085Z,76.62
2023-05-02T10:38:40.520Z,76.20
2023-05-02T10:39:40.388Z,76.42
2023-05-02T10:40:40.180Z,76.79
2023-05-02T10:41:40.092Z,76.51
2023-05-02T10:42:39.792Z,76.16
2023-05-02T10:43:40.508Z,75.83
2023-05-02T10:44:45.189Z,75.48
2023-05-02T10:45:40.212Z,75.59
2023-05-02T10:46:40.409Z,75.52
2023-05-02T10:47:41.090Z,75.69
2023-05-02T10:48:44.882Z,75.35
2023-05-02T10:49:41.129Z,75.61
2023-05-02T10:50:41.911Z,75.78
2023-05-02T10:51:41.196Z,75.75
2023-05-02T10:52:40.126Z,75.77
2023-05-02T10:53:39.993Z,75.72
2023-05-02T10:54:48.063Z,75.91
2023-05-02T10:55:39.989Z,75.98
2023-05-02T10:56:47.812Z,76.73
2023-05-02T10:57:40.833Z,77.20
2023-05-02T10:58:40.258Z,77.36
2023-05-02T10:59:39.987Z,77.54
2023-05-02T11:00:40.666Z,77.65
2023-05-02T11:01:41.046Z,77.48
2023-05-02T11:02:40.530Z,77.24
2023-05-02T11:03:40.599Z,77.22
2023-05-02T11:04:40.633Z,77.37
2023-05-02T11:05:40.821Z,77.30
2023-05-02T11:06:41.141Z,77.51
2023-05-02T11:07:39.894Z,77.80
2023-05-02T11:08:40.694Z,77.78
2023-05-02T11:09:40.543Z,77.87
2023-05-02T11:10:54.692Z,77.98
2023-05-02T11:11:40.270Z,77.90
2023-05-02T11:12:40.051Z,77.54
2023-05-02T11:13:39.831Z,77.32
2023-05-02T11:14:40.519Z,77.27
2023-05-02T11:15:40.324Z,77.33
2023-05-02T11:16:40.323Z,77.49
2023-05-02T11:17:40.305Z,77.65
2023-05-02T11:18:40.133Z,77.52
2023-05-02T11:19:40.092Z,77.65
2023-05-02T11:20:40.304Z,77.65
2023-05-02T11:21:40.227Z,77.69
2023-05-02T11:22:40.276Z,77.53
2023-05-02T11:23:40.028Z,77.16
2023-05-02T11:24:40.489Z,77.11
2023-05-02T11:25:40.780Z,77.20
2023-05-02T11:26:59.938Z,77.11
2023-05-02T11:27:40.947Z,77.26
2023-05-02T11:28:40.726Z,77.44
2023-05-02T11:29:41.228Z,77.40
2023-05-02T11:30:46.349Z,77.28
2023-05-02T11:31:41.058Z,77.42
2023-05-02T11:32:40.626Z,77.38
2023-05-02T11:33:40.816Z,77.38
2023-05-02T11:34:40.380Z,77.17
2023-05-02T11:35:40.450Z,76.85
2023-05-02T11:36:40.219Z,76.86
2023-05-02T11:37:39.968Z,76.88
2023-05-02T11:38:40.602Z,76.97
2023-05-02T11:39:40.485Z,76.80
2023-05-02T11:40:40.522Z,76.06
2023-05-02T11:41:40.459Z,75.79
2023-05-02T11:42:40.475Z,75.82
2023-05-02T11:43:40.856Z,75.84
2023-05-02T11:44:40.824Z,75.83
2023-05-02T11:45:41.132Z,75.67
2023-05-02T11:46:40.063Z,75.46
2023-05-02T11:47:40.185Z,75.42
2023-05-02T11:48:40.156Z,75.72
2023-05-02T11:49:40.298Z,75.53
2023-05-02T11:50:44.038Z,75.38
2023-05-02T11:51:40.386Z,75.57
2023-05-02T11:52:40.371Z,75.56
2023-05-02T11:53:40.199Z,75.43
2023-05-02T11:54:40.342Z,75.38
2023-05-02T11:55:40.912Z,75.25
2023-05-02T11:56:40.639Z,75.42
2023-05-02T11:57:40.768Z,75.56
2023-05-02T11:58:40.376Z,75.54
2023-05-02T11:59:40.600Z,75.73
2023-05-02T12:00:41.110Z,75.80
2023-05-02T12:01:40.362Z,76.02
2023-05-02T12:03:12.605Z,76.01
2023-05-02T12:03:46.212Z,76.20
2023-05-02T12:04:40.007Z,76.23
2023-05-02T12:05:40.218Z,76.13
2023-05-02T12:06:40.673Z,75.83
2023-05-02T12:07:40.756Z,75.56
2023-05-02T12:08:41.049Z,75.21
2023-05-02T12:09:40.700Z,75.06
2023-05-02T12:10:40.688Z,75.14
2023-05-02T12:11:40.416Z,74.79
2023-05-02T12:12:40.358Z,74.85
2023-05-02T12:13:40.185Z,74.70
2023-05-02T12:14:40.164Z,74.60
2023-05-02T12:15:40.352Z,74.54
2023-05-02T12:16:40.219Z,74.66
2023-05-02T12:17:40.225Z,74.60
2023-05-02T12:18:39.730Z,74.50
2023-05-02T12:19:40.145Z,74.36
2023-05-02T12:20:40.004Z,74.38
2023-05-02T12:21:39.892Z,74.41
2023-05-02T12:22:40.021Z,74.44
2023-05-02T12:23:39.954Z,74.46
2023-05-02T12:25:40.531Z,74.57
2023-05-02T12:26:40.342Z,74.51
2023-05-02T12:27:39.964Z,74.74
2023-05-02T12:28:40.487Z,74.62
2023-05-02T12:29:39.923Z,74.57
2023-05-02T12:30:40.772Z,74.34
2023-05-02T12:31:40.408Z,74.15
2023-05-02T12:32:43.032Z,73.80
2023-05-02T12:33:39.854Z,73.52
2023-05-02T12:34:40.548Z,73.60
2023-05-02T12:35:40.355Z,73.97
2023-05-02T12:36:40.128Z,73.95
2023-05-02T12:37:39.823Z,73.99
2023-05-02T12:38:40.096Z,73.76
2023-05-02T12:39:39.932Z,73.77
2023-05-02T12:40:40.457Z,73.82
2023-05-02T12:41:40.198Z,73.96
2023-05-02T12:42:39.793Z,74.04
2023-05-02T12:43:40.472Z,74.19
2023-05-02T12:45:40.542Z,74.14
2023-05-02T12:46:41.068Z,74.12
2023-05-02T12:47:40.916Z,73.09
2023-05-02T12:48:40.398Z,72.94
2023-05-02T12:49:40.304Z,73.23
2023-05-02T12:50:40.284Z,73.52
2023-05-02T12:51:40.769Z,73.66
2023-05-02T12:52:40.364Z,73.68
2023-05-02T12:53:39.807Z,73.75
2023-05-02T12:54:40.092Z,73.84